createdAt,value
2023-12-31T00:00:14.358Z,21.00
2023-12-31T00:03:06.941Z,24.20
2023-12-31T00:05:38.922Z,43.30
2023-12-31T00:08:12.328Z,23.00
2023-12-31T00:10:44.503Z,18.80
2023-12-31T00:13:16.644Z,18.10
2023-12-31T00:15:48.698Z,16.40
2023-12-31T00:18:20.808Z,17.20
2023-12-31T00:20:52.793Z,68.00
2023-12-31T00:23:24.831Z,51.20
2023-12-31T00:25:56.842Z,29.80
2023-12-31T00:28:28.850Z,18.20
2023-12-31T00:31:00.924Z,18.50
2023-12-31T00:33:33.929Z,39.70
2023-12-31T00:36:06.415Z,25.10
2023-12-31T00:38:38.749Z,21.20
2023-12-31T00:41:10.716Z,21.80
2023-12-31T00:43:42.980Z,22.70
2023-12-31T00:46:16.914Z,23.30
2023-12-31T00:48:49.028Z,26.50
2023-12-31T00:51:21.017Z,36.10
2023-12-31T00:53:52.955Z,36.60
2023-12-31T00:56:25.716Z,31.40
2023-12-31T00:58:58.022Z,34.30
2023-12-31T01:01:30.127Z,33.40
2023-12-31T01:04:02.087Z,36.80
2023-12-31T01:06:34.869Z,40.70
2023-12-31T01:09:08.213Z,37.50
2023-12-31T01:11:40.171Z,38.10
2023-12-31T01:14:12.664Z,35.60
2023-12-31T01:16:44.708Z,36.60
2023-12-31T01:19:17.695Z,37.30
2023-12-31T01:21:50.697Z,37.40
2023-12-31T01:24:22.672Z,35.70
2023-12-31T01:26:54.986Z,31.50
2023-12-31T01:29:26.963Z,41.20
2023-12-31T01:32:00.629Z,38.60
2023-12-31T01:34:32.616Z,37.00
2023-12-31T01:37:07.188Z,37.60
2023-12-31T01:39:39.122Z,34.20
2023-12-31T01:42:11.079Z,37.60
2023-12-31T01:44:43.072Z,33.50
2023-12-31T01:47:19.028Z,34.40
2023-12-31T01:49:51.481Z,35.30
2023-12-31T01:52:26.472Z,34.40
2023-12-31T01:54:58.981Z,37.80
2023-12-31T01:57:34.590Z,37.70
2023-12-31T02:00:08.302Z,37.30
2023-12-31T02:02:49.036Z,41.30
2023-12-31T02:05:21.597Z,42.60
2023-12-31T02:07:53.747Z,43.20
2023-12-31T02:10:25.895Z,42.30
2023-12-31T02:12:58.943Z,40.40
2023-12-31T02:15:34.948Z,40.50
2023-12-31T02:18:07.623Z,39.30
2023-12-31T02:20:41.031Z,40.60
2023-12-31T02:23:13.027Z,32.60
2023-12-31T02:25:49.858Z,35.90
2023-12-31T02:28:21.943Z,38.60
2023-12-31T02:30:53.937Z,39.20
2023-12-31T02:33:25.918Z,37.20
2023-12-31T02:35:57.892Z,37.80
2023-12-31T02:38:30.185Z,35.70
2023-12-31T02:41:02.124Z,32.90
2023-12-31T02:43:34.194Z,33.90
2023-12-31T02:46:06.790Z,37.70
2023-12-31T02:48:38.894Z,37.10
2023-12-31T02:51:12.579Z,31.30
2023-12-31T02:53:44.533Z,33.70
2023-12-31T02:56:16.543Z,34.30
2023-12-31T02:58:48.553Z,34.60
2023-12-31T03:01:20.659Z,32.30
2023-12-31T03:03:53.609Z,36.20
2023-12-31T03:06:29.048Z,45.50
2023-12-31T03:09:03.339Z,42.10
2023-12-31T03:11:35.475Z,37.30
2023-12-31T03:14:07.734Z,38.90
2023-12-31T03:16:44.698Z,40.10
2023-12-31T03:19:17.571Z,35.70
2023-12-31T03:21:50.555Z,33.60
2023-12-31T03:24:23.979Z,32.40
2023-12-31T03:26:56.024Z,34.90
2023-12-31T03:29:28.690Z,32.10
2023-12-31T03:32:00.751Z,34.80
2023-12-31T03:34:32.863Z,32.80
2023-12-31T03:37:04.909Z,33.90
2023-12-31T03:39:36.849Z,32.00
2023-12-31T03:42:09.235Z,29.80
2023-12-31T03:44:41.208Z,32.90
2023-12-31T03:47:13.165Z,34.10
2023-12-31T03:49:45.265Z,30.50
2023-12-31T03:52:18.304Z,33.00
2023-12-31T03:54:50.256Z,32.90
2023-12-31T03:57:22.210Z,32.50
2023-12-31T03:59:54.865Z,30.30
2023-12-31T04:02:26.834Z,30.90
2023-12-31T04:04:58.802Z,27.80
2023-12-31T04:07:31.202Z,26.40
2023-12-31T04:10:04.094Z,30.50
2023-12-31T04:12:36.041Z,30.50
2023-12-31T04:15:09.522Z,29.90
2023-12-31T04:17:41.503Z,29.70
2023-12-31T04:20:14.881Z,27.90
2023-12-31T04:22:46.939Z,29.50
2023-12-31T04:25:19.536Z,27.30
2023-12-31T04:27:51.629Z,29.00
2023-12-31T04:30:24.166Z,26.50
2023-12-31T04:32:57.216Z,27.70
2023-12-31T04:35:29.189Z,27.90
2023-12-31T04:38:01.143Z,23.80
2023-12-31T04:40:33.153Z,28.80
2023-12-31T04:43:05.809Z,29.20
2023-12-31T04:45:37.961Z,28.40
2023-12-31T04:48:10.562Z,29.50
2023-12-31T04:50:44.422Z,27.30
2023-12-31T04:53:22.099Z,31.00
2023-12-31T04:55:54.055Z,32.60
2023-12-31T04:58:26.140Z,30.70
2023-12-31T05:00:58.104Z,26.60
2023-12-31T05:03:30.079Z,22.50
2023-12-31T05:06:02.148Z,24.10
2023-12-31T05:08:34.187Z,23.00
2023-12-31T05:11:06.322Z,28.10
2023-12-31T05:13:39.097Z,25.70
2023-12-31T05:16:15.145Z,24.90
2023-12-31T05:18:51.951Z,26.50
2023-12-31T05:21:24.500Z,20.90
2023-12-31T05:23:56.498Z,22.60
2023-12-31T05:26:28.456Z,21.10
2023-12-31T05:29:00.476Z,21.50
2023-12-31T05:31:32.556Z,21.20
2023-12-31T05:34:04.789Z,22.90
2023-12-31T05:36:36.760Z,23.10
2023-12-31T05:39:09.636Z,19.80
2023-12-31T05:41:41.923Z,18.20
2023-12-31T05:44:14.119Z,17.70
2023-12-31T05:46:46.097Z,19.00
2023-12-31T05:49:18.340Z,17.40
2023-12-31T05:51:50.400Z,18.20
2023-12-31T05:54:22.813Z,18.30
2023-12-31T05:56:56.788Z,18.90
2023-12-31T05:59:29.990Z,22.50
2023-12-31T06:02:01.986Z,23.30
2023-12-31T06:04:34.166Z,22.30
2023-12-31T06:07:06.451Z,22.90
2023-12-31T06:09:38.430Z,24.50
2023-12-31T06:12:10.930Z,22.90
2023-12-31T06:14:42.876Z,23.80
2023-12-31T06:17:14.833Z,25.40
2023-12-31T06:19:46.769Z,24.80
2023-12-31T06:22:18.852Z,24.70
2023-12-31T06:24:50.899Z,23.70
2023-12-31T06:27:22.823Z,22.60
2023-12-31T06:29:55.162Z,22.30
2023-12-31T06:32:27.185Z,28.80
2023-12-31T06:34:59.183Z,28.60
2023-12-31T06:37:31.160Z,23.70
2023-12-31T06:40:03.280Z,24.50
2023-12-31T06:42:35.241Z,25.60
2023-12-31T06:45:09.597Z,25.00
2023-12-31T06:47:41.821Z,25.10
2023-12-31T06:50:14.147Z,29.70
2023-12-31T06:52:46.135Z,25.40
2023-12-31T06:55:18.318Z,24.70
2023-12-31T06:57:50.594Z,27.70
2023-12-31T07:00:23.756Z,27.10
2023-12-31T07:02:56.592Z,23.80
2023-12-31T07:05:28.637Z,24.70
2023-12-31T07:08:00.614Z,23.50
2023-12-31T07:10:32.595Z,26.40
2023-12-31T07:13:05.108Z,24.40
2023-12-31T07:15:38.155Z,30.70
2023-12-31T07:18:10.276Z,27.30
2023-12-31T07:20:43.330Z,26.90
2023-12-31T07:23:15.412Z,26.90
2023-12-31T07:25:47.438Z,41.40
2023-12-31T07:28:19.484Z,61.60
2023-12-31T07:30:51.506Z,60.10
2023-12-31T07:33:23.452Z,57.00
2023-12-31T07:35:55.874Z,56.90
2023-12-31T07:38:27.823Z,41.00
2023-12-31T07:40:59.832Z,38.30
2023-12-31T07:43:32.664Z,49.30
2023-12-31T07:46:04.856Z,45.00
2023-12-31T07:48:36.930Z,42.00
2023-12-31T07:51:10.380Z,36.80
2023-12-31T07:53:42.323Z,34.80
2023-12-31T07:56:14.245Z,36.00
2023-12-31T07:58:46.209Z,33.40
2023-12-31T08:01:18.304Z,36.40
2023-12-31T08:03:52.250Z,45.10
2023-12-31T08:06:24.450Z,47.30
2023-12-31T08:08:56.651Z,59.10
2023-12-31T08:11:28.584Z,57.50
2023-12-31T08:14:00.548Z,44.00
2023-12-31T08:16:32.608Z,39.60
2023-12-31T08:19:05.482Z,40.80
2023-12-31T08:21:37.646Z,43.00
2023-12-31T08:24:10.266Z,42.00
2023-12-31T08:26:42.246Z,42.20
2023-12-31T08:29:14.206Z,42.50
2023-12-31T08:31:54.017Z,43.80
2023-12-31T08:34:26.252Z,45.30
2023-12-31T08:36:58.347Z,49.60
2023-12-31T08:39:31.154Z,52.00
2023-12-31T08:42:03.083Z,50.80
2023-12-31T08:44:38.609Z,46.40
2023-12-31T08:47:15.057Z,50.10
2023-12-31T08:49:47.042Z,55.60
2023-12-31T08:52:19.041Z,49.30
2023-12-31T08:54:51.038Z,52.30
2023-12-31T08:57:22.968Z,47.00
2023-12-31T08:59:54.908Z,115.70
2023-12-31T09:02:26.913Z,42.00
2023-12-31T09:04:59.274Z,75.60
2023-12-31T09:07:31.374Z,144.10
2023-12-31T09:10:04.323Z,78.00
2023-12-31T09:12:36.853Z,50.20
2023-12-31T09:15:10.877Z,39.60
2023-12-31T09:17:42.903Z,41.40
2023-12-31T09:20:15.586Z,62.00
2023-12-31T09:22:50.264Z,88.10
2023-12-31T09:25:22.782Z,45.60
2023-12-31T09:27:54.727Z,42.00
2023-12-31T09:30:27.415Z,42.00
2023-12-31T09:32:59.544Z,35.90
2023-12-31T09:35:31.775Z,75.30
2023-12-31T09:38:03.714Z,77.70
2023-12-31T09:40:36.004Z,46.80
2023-12-31T09:43:11.394Z,41.00
2023-12-31T09:45:43.998Z,41.30
2023-12-31T09:48:18.010Z,41.60
2023-12-31T09:50:50.052Z,39.00
2023-12-31T09:53:24.885Z,36.90
2023-12-31T09:55:58.301Z,52.30
2023-12-31T09:58:30.830Z,44.10
2023-12-31T10:01:02.901Z,37.30
2023-12-31T10:03:35.572Z,31.90
2023-12-31T10:06:10.229Z,28.20
2023-12-31T10:08:44.305Z,33.20
2023-12-31T10:11:16.197Z,33.40
2023-12-31T10:13:48.260Z,34.00
2023-12-31T10:16:20.448Z,31.20
2023-12-31T10:18:52.446Z,32.50
2023-12-31T10:21:24.474Z,31.00
2023-12-31T10:23:56.415Z,34.40
2023-12-31T10:26:28.481Z,32.90
2023-12-31T10:29:00.465Z,35.60
2023-12-31T10:31:32.742Z,34.00
2023-12-31T10:34:18.260Z,33.20
2023-12-31T10:36:50.869Z,32.00
2023-12-31T10:39:33.882Z,31.10
2023-12-31T10:42:07.709Z,31.50
2023-12-31T10:44:41.118Z,28.10
2023-12-31T10:47:16.663Z,28.30
2023-12-31T10:49:49.441Z,26.80
2023-12-31T10:52:22.014Z,31.30
2023-12-31T10:54:54.666Z,29.20
2023-12-31T10:57:27.794Z,28.40
2023-12-31T10:59:59.886Z,27.40
2023-12-31T11:02:32.662Z,25.50
2023-12-31T11:05:06.176Z,26.10
2023-12-31T11:07:39.182Z,24.20
2023-12-31T11:10:13.198Z,32.40
2023-12-31T11:12:50.153Z,33.70
2023-12-31T11:15:25.643Z,29.90
2023-12-31T11:18:16.710Z,31.60
2023-12-31T11:21:09.902Z,30.70
2023-12-31T11:23:58.191Z,34.10
2023-12-31T11:26:30.298Z,43.50
2023-12-31T11:29:04.650Z,34.80
2023-12-31T11:31:40.519Z,31.00
2023-12-31T11:34:13.009Z,39.60
2023-12-31T11:36:45.034Z,39.80
2023-12-31T11:39:24.700Z,40.80
2023-12-31T11:42:00.993Z,41.90
2023-12-31T11:44:43.591Z,39.70
2023-12-31T11:47:18.868Z,43.90
2023-12-31T11:49:54.970Z,39.00
2023-12-31T11:55:19.094Z,37.60
2023-12-31T11:57:51.902Z,37.10
2023-12-31T12:00:24.320Z,41.80
2023-12-31T12:02:56.269Z,45.30
2023-12-31T12:05:28.234Z,43.30
2023-12-31T12:08:03.394Z,52.20
2023-12-31T12:10:35.973Z,49.50
2023-12-31T12:13:08.304Z,51.60
2023-12-31T12:15:41.143Z,45.40
2023-12-31T12:18:24.441Z,44.70
2023-12-31T12:20:56.731Z,42.80
2023-12-31T12:23:28.930Z,42.80
2023-12-31T12:26:02.792Z,40.50
2023-12-31T12:28:36.348Z,43.60
2023-12-31T12:31:10.137Z,39.10
2023-12-31T12:33:44.421Z,41.50
2023-12-31T12:36:16.494Z,40.80
2023-12-31T12:38:50.016Z,45.80
2023-12-31T12:41:25.905Z,47.90
2023-12-31T12:44:02.111Z,49.60
2023-12-31T12:49:05.654Z,42.60
2023-12-31T12:51:38.070Z,38.70
2023-12-31T12:54:10.483Z,36.80
2023-12-31T12:56:42.435Z,42.30
2023-12-31T12:59:15.052Z,40.80
2023-12-31T13:01:47.063Z,51.90
2023-12-31T13:04:20.726Z,73.90
2023-12-31T13:06:58.491Z,52.30
2023-12-31T13:09:30.493Z,43.20
2023-12-31T13:12:02.870Z,43.50
2023-12-31T13:14:36.800Z,54.20
2023-12-31T13:17:08.774Z,62.00
2023-12-31T13:19:40.832Z,51.30
2023-12-31T13:22:12.775Z,41.60
2023-12-31T13:24:44.678Z,36.30
2023-12-31T13:27:16.661Z,43.20
2023-12-31T13:29:48.611Z,83.30
2023-12-31T13:32:21.134Z,58.40
2023-12-31T13:34:53.088Z,46.00
2023-12-31T13:37:25.080Z,44.50
2023-12-31T13:39:57.092Z,34.90
2023-12-31T13:42:31.779Z,33.70
2023-12-31T13:45:04.509Z,27.20
2023-12-31T13:47:37.425Z,31.20
2023-12-31T13:50:10.408Z,25.30
2023-12-31T13:52:42.560Z,31.70
2023-12-31T13:55:14.563Z,32.90
2023-12-31T13:57:46.516Z,36.50
2023-12-31T14:00:19.551Z,39.30
2023-12-31T14:02:57.298Z,44.10
2023-12-31T14:05:36.314Z,43.70
2023-12-31T14:08:09.492Z,51.40
2023-12-31T14:10:41.938Z,97.00
2023-12-31T14:13:13.969Z,146.00
2023-12-31T14:15:46.225Z,139.40
2023-12-31T14:18:19.432Z,60.10
2023-12-31T14:20:51.839Z,41.50
2023-12-31T14:23:23.905Z,36.80
2023-12-31T14:25:55.941Z,36.30
2023-12-31T14:28:28.032Z,34.60
2023-12-31T14:31:00.188Z,44.80
2023-12-31T14:33:32.327Z,38.60
2023-12-31T14:36:04.620Z,33.40
2023-12-31T14:38:37.318Z,32.50
2023-12-31T14:41:09.810Z,31.50
2023-12-31T14:43:41.882Z,41.20
2023-12-31T14:46:13.891Z,46.30
2023-12-31T14:48:45.978Z,40.30
2023-12-31T14:51:17.981Z,31.90
2023-12-31T14:53:49.984Z,30.60
2023-12-31T14:56:21.971Z,31.50
2023-12-31T14:58:55.855Z,32.10
2023-12-31T15:01:29.992Z,42.70
2023-12-31T15:04:02.576Z,62.30
2023-12-31T15:06:34.718Z,78.00
2023-12-31T15:09:07.971Z,62.90
2023-12-31T15:11:40.798Z,62.20
2023-12-31T15:14:13.676Z,64.60
2023-12-31T15:16:46.291Z,54.70
2023-12-31T15:19:19.014Z,43.60
2023-12-31T15:21:51.016Z,33.60
2023-12-31T15:24:22.986Z,29.10
2023-12-31T15:26:54.958Z,36.80
2023-12-31T15:29:26.921Z,36.90
2023-12-31T15:31:58.901Z,42.30
2023-12-31T15:34:30.944Z,38.20
2023-12-31T15:37:08.886Z,38.10
2023-12-31T15:39:42.756Z,35.00
2023-12-31T15:42:14.779Z,35.10
2023-12-31T15:44:48.393Z,35.80
2023-12-31T15:47:20.699Z,40.00
2023-12-31T15:49:53.136Z,32.50
2023-12-31T15:52:25.505Z,32.50
2023-12-31T15:54:57.559Z,34.40
2023-12-31T15:57:29.695Z,34.30
2023-12-31T16:00:01.799Z,32.10
2023-12-31T16:02:33.938Z,33.70
2023-12-31T16:05:06.808Z,32.80
2023-12-31T16:07:38.961Z,39.20
2023-12-31T16:10:11.755Z,44.00
2023-12-31T16:12:43.756Z,41.50
2023-12-31T16:15:15.801Z,39.30
2023-12-31T16:17:47.837Z,39.70
2023-12-31T16:20:19.910Z,41.20
2023-12-31T16:22:51.845Z,33.40
2023-12-31T16:25:23.937Z,35.70
2023-12-31T16:27:55.958Z,36.70
2023-12-31T16:30:28.217Z,35.00
2023-12-31T16:33:00.338Z,31.70
2023-12-31T16:35:32.472Z,36.40
2023-12-31T16:38:04.845Z,37.40
2023-12-31T16:40:37.010Z,49.10
2023-12-31T16:43:09.924Z,51.00
2023-12-31T16:45:42.145Z,46.00
2023-12-31T16:48:14.726Z,49.70
2023-12-31T16:50:47.271Z,57.10
2023-12-31T16:53:19.546Z,60.20
2023-12-31T16:55:51.594Z,39.30
2023-12-31T16:58:23.758Z,44.80
2023-12-31T17:00:56.180Z,45.20
2023-12-31T17:03:28.345Z,43.10
2023-12-31T17:06:02.580Z,40.40
2023-12-31T17:08:34.663Z,40.60
2023-12-31T17:11:07.092Z,37.80
2023-12-31T17:13:39.266Z,42.00
2023-12-31T17:16:13.248Z,44.20
2023-12-31T17:18:45.438Z,40.70
2023-12-31T17:21:17.507Z,37.90
2023-12-31T17:23:49.997Z,40.20
2023-12-31T17:26:22.324Z,42.70
2023-12-31T17:28:54.360Z,37.40
2023-12-31T17:31:26.582Z,47.10
2023-12-31T17:33:58.555Z,50.60
2023-12-31T17:36:30.508Z,40.80
2023-12-31T17:39:02.505Z,40.00
2023-12-31T17:41:34.475Z,43.30
2023-12-31T17:44:06.652Z,43.40
2023-12-31T17:46:38.720Z,43.60
2023-12-31T17:49:10.715Z,40.50
2023-12-31T17:51:43.574Z,41.60
2023-12-31T17:54:15.608Z,47.00
2023-12-31T17:56:47.669Z,44.70
2023-12-31T17:59:19.627Z,43.70
2023-12-31T18:01:51.667Z,47.70
2023-12-31T18:04:23.656Z,52.20
2023-12-31T18:06:55.599Z,76.70
2023-12-31T18:09:27.691Z,60.70
2023-12-31T18:11:59.629Z,51.20
2023-12-31T18:14:31.928Z,47.20
2023-12-31T18:17:04.291Z,45.30
2023-12-31T18:19:36.788Z,38.00
2023-12-31T18:22:08.932Z,40.50
2023-12-31T18:24:40.894Z,37.50
2023-12-31T18:27:15.343Z,39.20
2023-12-31T18:29:52.735Z,42.20
2023-12-31T18:32:27.377Z,348.40
2023-12-31T18:34:59.529Z,305.10
2023-12-31T18:37:31.693Z,144.60
2023-12-31T18:40:04.745Z,145.50
2023-12-31T18:42:36.682Z,98.40
2023-12-31T18:45:09.875Z,114.60
2023-12-31T18:47:42.309Z,98.80
2023-12-31T18:50:14.311Z,92.50
2023-12-31T18:52:46.338Z,246.70
2023-12-31T18:55:18.541Z,450.60
2023-12-31T18:57:50.506Z,356.30
2023-12-31T19:00:22.678Z,115.50
2023-12-31T19:02:54.724Z,74.00
2023-12-31T19:05:27.052Z,61.20
2023-12-31T19:07:59.226Z,68.10
2023-12-31T19:10:31.288Z,95.60
2023-12-31T19:13:03.954Z,62.70
2023-12-31T19:15:35.891Z,57.60
2023-12-31T19:18:09.451Z,65.60
2023-12-31T19:20:41.748Z,102.70
2023-12-31T19:23:14.403Z,68.90
2023-12-31T19:25:46.555Z,96.40
2023-12-31T19:28:18.527Z,65.60
2023-12-31T19:30:50.557Z,66.60
2023-12-31T19:33:22.713Z,63.50
2023-12-31T19:35:54.826Z,69.90
2023-12-31T19:38:26.825Z,57.50
2023-12-31T19:40:58.893Z,49.90
2023-12-31T19:43:47.871Z,50.20
2023-12-31T19:46:26.324Z,47.20
2023-12-31T19:48:58.343Z,43.10
2023-12-31T19:51:59.572Z,46.40
2023-12-31T19:54:37.493Z,45.80
2023-12-31T19:57:09.734Z,43.90
2023-12-31T19:59:41.708Z,44.20
2023-12-31T20:02:13.665Z,39.30
2023-12-31T20:04:45.781Z,47.70
2023-12-31T20:07:17.875Z,61.20
2023-12-31T20:09:50.943Z,63.10
2023-12-31T20:12:22.913Z,55.10
2023-12-31T20:14:54.921Z,55.30
2023-12-31T20:17:27.167Z,63.30
2023-12-31T20:19:59.182Z,51.10
2023-12-31T20:22:31.252Z,60.60
2023-12-31T20:25:03.285Z,50.70
2023-12-31T20:27:35.230Z,55.10
2023-12-31T20:30:09.662Z,45.60
2023-12-31T20:32:41.883Z,47.40
2023-12-31T20:35:14.883Z,48.50
2023-12-31T20:37:46.923Z,51.00
2023-12-31T20:40:21.540Z,44.60
2023-12-31T20:42:53.588Z,47.20
2023-12-31T20:45:27.642Z,47.30
2023-12-31T20:47:59.900Z,53.90
2023-12-31T20:50:32.864Z,48.30
2023-12-31T20:53:05.229Z,38.50
2023-12-31T20:55:37.427Z,44.30
2023-12-31T20:58:09.417Z,42.70
2023-12-31T21:00:41.391Z,48.70
2023-12-31T21:03:13.685Z,47.50
2023-12-31T21:05:45.783Z,40.60
2023-12-31T21:08:21.247Z,37.60
2023-12-31T21:10:53.352Z,41.90
2023-12-31T21:13:26.529Z,38.90
2023-12-31T21:16:00.616Z,38.80
2023-12-31T21:18:33.994Z,40.50
2023-12-31T21:21:06.090Z,39.80
2023-12-31T21:23:38.413Z,44.00
2023-12-31T21:26:10.376Z,42.40
2023-12-31T21:28:42.399Z,45.50
2023-12-31T21:31:14.324Z,37.50
2023-12-31T21:33:46.376Z,42.60
2023-12-31T21:36:18.498Z,43.60
2023-12-31T21:38:50.563Z,45.10
2023-12-31T21:41:23.663Z,46.40
2023-12-31T21:43:55.615Z,42.70
2023-12-31T21:46:36.606Z,41.70
2023-12-31T21:49:09.647Z,45.00
2023-12-31T21:51:41.808Z,36.90
2023-12-31T21:54:13.786Z,30.30
2023-12-31T21:56:57.460Z,33.90
2023-12-31T21:59:34.404Z,25.50
2023-12-31T22:02:06.699Z,28.70
2023-12-31T22:04:40.505Z,29.40
2023-12-31T22:07:13.090Z,27.10
2023-12-31T22:09:45.870Z,25.60
2023-12-31T22:12:17.941Z,22.00
2023-12-31T22:14:49.908Z,21.20
2023-12-31T22:17:22.339Z,25.50
2023-12-31T22:19:54.403Z,20.00
2023-12-31T22:22:26.468Z,23.10
2023-12-31T22:24:58.981Z,24.50
2023-12-31T22:27:30.914Z,21.60
2023-12-31T22:30:04.096Z,18.90
2023-12-31T22:32:36.941Z,20.60
2023-12-31T22:35:10.166Z,20.70
2023-12-31T22:37:42.214Z,25.30
2023-12-31T22:40:14.966Z,18.40
2023-12-31T22:42:46.908Z,20.50
2023-12-31T22:45:19.096Z,21.90
2023-12-31T22:47:51.078Z,20.00
2023-12-31T22:50:23.041Z,22.10
2023-12-31T22:52:58.145Z,23.30
2023-12-31T22:55:30.400Z,29.30
2023-12-31T22:58:03.768Z,23.90
2023-12-31T23:00:36.182Z,19.20
2023-12-31T23:03:08.775Z,22.60
2023-12-31T23:05:40.866Z,19.40
2023-12-31T23:08:12.974Z,23.90
2023-12-31T23:10:45.030Z,52.10
2023-12-31T23:13:17.084Z,94.50
2023-12-31T23:15:49.833Z,49.30
2023-12-31T23:18:22.196Z,29.30
2023-12-31T23:20:56.200Z,25.40
2023-12-31T23:23:28.814Z,26.60
2023-12-31T23:26:02.138Z,23.70
2023-12-31T23:28:35.098Z,18.80
2023-12-31T23:31:08.752Z,18.60
2023-12-31T23:33:41.632Z,22.90
2023-12-31T23:36:13.762Z,28.20
2023-12-31T23:38:48.167Z,19.80
2023-12-31T23:41:23.206Z,25.20
2023-12-31T23:44:02.772Z,28.20
2023-12-31T23:46:40.353Z,24.50
2023-12-31T23:49:12.348Z,23.80
2023-12-31T23:51:44.383Z,21.70
2023-12-31T23:54:16.399Z,20.60
2023-12-31T23:56:48.352Z,21.70
2023-12-31T23:59:20.820Z,20.60
